createdAt,value
2019-03-26T00:01:17.952Z,29.52
2019-03-26T00:03:46.662Z,30.08
2019-03-26T00:06:15.330Z,26.12
2019-03-26T00:08:43.992Z,32.00
2019-03-26T00:11:12.557Z,26.27
2019-03-26T00:13:41.228Z,33.38
2019-03-26T00:16:09.870Z,27.62
2019-03-26T00:18:38.439Z,33.15
2019-03-26T00:21:07.050Z,36.00
2019-03-26T00:23:35.619Z,35.05
2019-03-26T00:26:04.257Z,32.40
2019-03-26T00:28:33.021Z,34.48
2019-03-26T00:31:01.660Z,28.87
2019-03-26T00:33:36.315Z,30.23
2019-03-26T00:36:00.687Z,24.65
2019-03-26T00:38:29.319Z,25.95
2019-03-26T00:40:57.973Z,27.10
2019-03-26T00:43:26.586Z,26.87
2019-03-26T00:45:55.151Z,26.62
2019-03-26T00:48:23.716Z,20.23
2019-03-26T00:50:52.544Z,23.73
2019-03-26T00:53:21.146Z,17.48
2019-03-26T00:55:49.640Z,18.45
2019-03-26T00:58:18.240Z,19.55
2019-03-26T01:00:46.949Z,20.20
2019-03-26T01:03:15.522Z,20.85
2019-03-26T01:05:44.138Z,17.20
2019-03-26T01:08:12.773Z,17.67
2019-03-26T01:10:41.407Z,16.60
2019-03-26T01:13:10.193Z,19.37
2019-03-26T01:15:38.926Z,17.82
2019-03-26T01:18:07.549Z,16.90
2019-03-26T01:20:36.514Z,18.27
2019-03-26T01:23:05.147Z,15.45
2019-03-26T01:25:33.787Z,19.62
2019-03-26T01:28:02.494Z,12.73
2019-03-26T01:30:31.064Z,14.50
2019-03-26T01:32:59.660Z,15.05
2019-03-26T01:35:28.301Z,22.05
2019-03-26T01:37:56.871Z,17.55
2019-03-26T01:40:26.722Z,17.05
2019-03-26T01:42:55.359Z,16.52
2019-03-26T01:45:23.995Z,15.40
2019-03-26T01:47:52.564Z,18.60
2019-03-26T01:50:21.203Z,26.12
2019-03-26T01:52:49.740Z,16.42
2019-03-26T01:55:18.300Z,20.32
2019-03-26T01:57:48.014Z,20.57
2019-03-26T02:00:16.855Z,20.02
2019-03-26T02:02:45.321Z,19.00
2019-03-26T02:05:13.991Z,16.52
2019-03-26T02:07:42.667Z,22.65
2019-03-26T02:10:11.309Z,20.80
2019-03-26T02:12:39.798Z,37.20
2019-03-26T02:15:10.307Z,18.27
2019-03-26T02:17:38.939Z,20.85
2019-03-26T02:20:07.583Z,20.35
2019-03-26T02:22:36.426Z,17.67
2019-03-26T02:25:05.466Z,22.15
2019-03-26T02:27:34.097Z,17.00
2019-03-26T02:30:02.744Z,19.65
2019-03-26T02:32:31.376Z,21.87
2019-03-26T02:35:16.366Z,18.50
2019-03-26T02:37:30.296Z,18.17
2019-03-26T02:39:58.760Z,20.85
2019-03-26T02:42:27.402Z,16.77
2019-03-26T02:44:56.256Z,18.98
2019-03-26T02:47:24.736Z,16.35
2019-03-26T02:49:53.230Z,13.83
2019-03-26T02:52:21.889Z,13.30
2019-03-26T02:54:50.540Z,21.55
2019-03-26T02:57:19.036Z,22.05
2019-03-26T02:59:47.833Z,22.80
2019-03-26T03:02:16.469Z,14.78
2019-03-26T03:04:45.097Z,12.40
2019-03-26T03:07:13.888Z,16.90
2019-03-26T03:09:42.526Z,20.32
2019-03-26T03:12:11.156Z,15.08
2019-03-26T03:14:39.802Z,17.35
2019-03-26T03:17:08.297Z,15.53
2019-03-26T03:19:36.866Z,14.23
2019-03-26T03:22:05.462Z,18.87
2019-03-26T03:24:34.164Z,12.60
2019-03-26T03:27:02.833Z,13.70
2019-03-26T03:29:31.339Z,15.05
2019-03-26T03:31:59.962Z,13.53
2019-03-26T03:34:28.641Z,12.90
2019-03-26T03:36:57.213Z,13.95
2019-03-26T03:39:25.698Z,15.48
2019-03-26T03:41:54.704Z,12.93
2019-03-26T03:44:23.431Z,13.43
2019-03-26T03:46:54.103Z,11.55
2019-03-26T03:49:25.543Z,9.63
2019-03-26T03:51:56.690Z,12.70
2019-03-26T03:54:25.722Z,12.37
2019-03-26T03:56:55.826Z,13.43
2019-03-26T03:59:26.496Z,14.30
2019-03-26T04:01:54.985Z,13.30
2019-03-26T04:04:23.790Z,14.20
2019-03-26T04:06:52.430Z,13.62
2019-03-26T04:09:21.060Z,16.42
2019-03-26T04:11:49.595Z,16.37
2019-03-26T04:14:18.097Z,15.30
2019-03-26T04:16:46.726Z,16.60
2019-03-26T04:19:15.597Z,15.83
2019-03-26T04:21:44.085Z,16.97
2019-03-26T04:24:12.583Z,13.80
2019-03-26T04:26:42.283Z,12.90
2019-03-26T04:29:10.780Z,14.45
2019-03-26T04:31:39.413Z,15.00
2019-03-26T04:34:08.328Z,12.70
2019-03-26T04:36:36.896Z,13.78
2019-03-26T04:39:07.439Z,11.88
2019-03-26T04:41:36.405Z,16.05
2019-03-26T04:44:05.032Z,18.67
2019-03-26T04:46:33.524Z,16.90
2019-03-26T04:49:02.053Z,15.10
2019-03-26T04:51:30.701Z,16.20
2019-03-26T04:53:59.333Z,18.07
2019-03-26T04:56:27.863Z,16.70
2019-03-26T04:58:56.362Z,25.05
2019-03-26T05:01:24.986Z,17.07
2019-03-26T05:03:53.644Z,20.57
2019-03-26T05:06:22.143Z,17.17
2019-03-26T05:08:50.702Z,21.40
2019-03-26T05:11:19.309Z,17.42
2019-03-26T05:13:47.807Z,19.37
2019-03-26T05:16:16.442Z,27.52
2019-03-26T05:18:45.114Z,19.12
2019-03-26T05:21:13.685Z,17.17
2019-03-26T05:23:42.235Z,16.62
2019-03-26T05:26:10.910Z,24.07
2019-03-26T05:28:39.553Z,16.65
2019-03-26T05:31:08.065Z,30.15
2019-03-26T05:33:36.607Z,22.98
2019-03-26T05:36:05.239Z,30.52
2019-03-26T05:38:33.888Z,24.20
2019-03-26T05:41:02.415Z,16.97
2019-03-26T05:43:30.917Z,18.90
2019-03-26T05:45:59.554Z,27.22
2019-03-26T05:48:29.414Z,23.38
2019-03-26T05:50:58.129Z,26.35
2019-03-26T05:53:26.807Z,19.62
2019-03-26T05:55:55.336Z,24.87
2019-03-26T05:58:23.830Z,26.70
2019-03-26T06:00:52.493Z,30.12
2019-03-26T06:03:21.319Z,22.27
2019-03-26T06:05:49.888Z,26.07
2019-03-26T06:08:18.394Z,21.65
2019-03-26T06:10:47.071Z,32.50
2019-03-26T06:13:15.715Z,22.13
2019-03-26T06:15:44.215Z,19.57
2019-03-26T06:18:12.757Z,19.73
2019-03-26T06:20:41.381Z,15.30
2019-03-26T06:23:10.015Z,26.23
2019-03-26T06:25:38.882Z,20.08
2019-03-26T06:28:07.514Z,14.23
2019-03-26T06:30:36.012Z,15.20
2019-03-26T06:33:04.938Z,15.10
2019-03-26T06:35:33.589Z,13.75
2019-03-26T06:38:02.264Z,15.95
2019-03-26T06:40:30.842Z,26.12
2019-03-26T06:42:59.400Z,15.38
2019-03-26T06:45:28.031Z,19.10
2019-03-26T06:47:56.708Z,18.98
2019-03-26T06:50:25.202Z,14.45
2019-03-26T06:52:53.762Z,10.15
2019-03-26T06:55:22.437Z,10.03
2019-03-26T06:57:51.073Z,16.65
2019-03-26T07:00:22.619Z,13.88
2019-03-26T07:02:51.283Z,18.40
2019-03-26T07:05:19.922Z,12.03
2019-03-26T07:07:48.424Z,9.68
2019-03-26T07:10:19.993Z,13.75
2019-03-26T07:12:48.634Z,13.58
2019-03-26T07:15:17.323Z,13.83
2019-03-26T07:17:45.902Z,13.78
2019-03-26T07:20:14.632Z,13.43
2019-03-26T07:22:43.272Z,10.75
2019-03-26T07:25:12.197Z,7.15
2019-03-26T07:27:40.834Z,12.30
2019-03-26T07:30:11.683Z,18.92
2019-03-26T07:32:40.321Z,6.35
2019-03-26T07:35:09.464Z,7.95
2019-03-26T07:37:44.946Z,10.98
2019-03-26T07:40:08.862Z,16.73
2019-03-26T07:42:37.520Z,6.37
2019-03-26T07:45:08.014Z,10.25
2019-03-26T07:47:36.615Z,13.85
2019-03-26T07:50:07.351Z,20.08
2019-03-26T07:52:35.939Z,13.90
2019-03-26T07:55:06.294Z,18.80
2019-03-26T07:57:34.948Z,13.08
2019-03-26T08:00:05.878Z,11.25
2019-03-26T08:02:34.989Z,12.98
2019-03-26T08:05:04.527Z,9.90
2019-03-26T08:07:33.146Z,9.08
2019-03-26T08:10:01.843Z,10.00
2019-03-26T08:12:32.774Z,10.98
2019-03-26T08:15:00.742Z,8.85
2019-03-26T08:17:29.377Z,8.85
2019-03-26T08:19:57.866Z,9.50
2019-03-26T08:22:26.365Z,12.05
2019-03-26T08:24:55.029Z,9.65
2019-03-26T08:27:23.679Z,21.45
2019-03-26T08:29:52.176Z,8.68
2019-03-26T08:32:21.112Z,9.85
2019-03-26T08:34:49.741Z,5.70
2019-03-26T08:37:18.379Z,11.68
2019-03-26T08:39:46.921Z,9.03
2019-03-26T08:42:15.407Z,11.33
2019-03-26T08:44:44.047Z,9.40
2019-03-26T08:47:12.725Z,10.65
2019-03-26T08:49:41.231Z,11.00
2019-03-26T08:52:09.728Z,6.72
2019-03-26T08:54:38.657Z,5.10
2019-03-26T08:57:07.291Z,7.87
2019-03-26T08:59:35.789Z,6.95
2019-03-26T09:02:04.633Z,11.70
2019-03-26T09:04:33.271Z,12.33
2019-03-26T09:07:01.767Z,10.35
2019-03-26T09:09:30.564Z,7.92
2019-03-26T09:11:59.207Z,12.00
2019-03-26T09:14:27.704Z,7.72
2019-03-26T09:16:56.329Z,10.95
2019-03-26T09:19:24.964Z,10.28
2019-03-26T09:21:53.607Z,11.45
2019-03-26T09:24:22.153Z,6.45
2019-03-26T09:26:50.725Z,12.47
2019-03-26T09:29:19.361Z,11.63
2019-03-26T09:31:48.959Z,11.48
2019-03-26T09:34:17.451Z,8.95
2019-03-26T09:36:45.950Z,10.80
2019-03-26T09:39:15.091Z,7.78
2019-03-26T09:41:43.723Z,8.85
2019-03-26T09:44:12.235Z,7.15
2019-03-26T09:46:40.906Z,7.08
2019-03-26T09:49:09.409Z,13.28
2019-03-26T09:51:37.894Z,6.62
2019-03-26T09:54:06.568Z,11.25
2019-03-26T09:56:35.293Z,5.78
2019-03-26T09:59:03.861Z,10.20
2019-03-26T10:01:32.440Z,6.70
2019-03-26T10:04:01.072Z,7.12
2019-03-26T10:06:29.696Z,13.90
2019-03-26T10:08:58.228Z,9.78
2019-03-26T10:11:26.724Z,8.15
2019-03-26T10:13:55.421Z,10.78
2019-03-26T10:16:24.095Z,7.10
2019-03-26T10:18:52.597Z,11.70
2019-03-26T10:21:21.197Z,13.70
2019-03-26T10:23:49.847Z,9.15
2019-03-26T10:26:18.350Z,11.38
2019-03-26T10:28:46.914Z,19.10
2019-03-26T10:31:15.592Z,9.50
2019-03-26T10:33:44.233Z,13.40
2019-03-26T10:36:12.804Z,14.30
2019-03-26T10:38:42.422Z,6.95
2019-03-26T10:41:11.094Z,16.82
2019-03-26T10:43:39.593Z,11.75
2019-03-26T10:46:09.301Z,8.50
2019-03-26T10:48:37.925Z,9.65
2019-03-26T10:51:06.559Z,10.75
2019-03-26T10:53:35.097Z,10.98
2019-03-26T10:56:03.612Z,12.20
2019-03-26T10:58:32.247Z,11.95
2019-03-26T11:01:00.962Z,8.83
2019-03-26T11:03:29.429Z,9.85
2019-03-26T11:05:58.048Z,8.93
2019-03-26T11:08:26.843Z,10.95
2019-03-26T11:10:55.404Z,15.38
2019-03-26T11:13:24.054Z,12.25
2019-03-26T11:15:52.810Z,10.65
2019-03-26T11:18:21.307Z,14.80
2019-03-26T11:21:01.828Z,16.02
2019-03-26T11:23:20.299Z,10.93
2019-03-26T11:25:48.934Z,10.88
2019-03-26T11:28:17.433Z,13.30
2019-03-26T11:30:45.976Z,10.70
2019-03-26T11:33:14.603Z,9.60
2019-03-26T11:35:43.299Z,9.90
2019-03-26T11:38:12.668Z,12.37
2019-03-26T11:40:42.861Z,15.90
2019-03-26T11:43:16.911Z,19.55
2019-03-26T11:45:45.681Z,17.40
2019-03-26T11:48:14.573Z,13.45
2019-03-26T11:50:43.418Z,16.23
2019-03-26T11:53:12.629Z,14.45
2019-03-26T11:55:41.136Z,14.60
2019-03-26T11:58:09.800Z,13.65
2019-03-26T12:00:39.246Z,16.02
2019-03-26T12:03:07.951Z,13.90
2019-03-26T12:05:36.526Z,15.40
2019-03-26T12:08:05.206Z,23.73
2019-03-26T12:10:33.869Z,15.08
2019-03-26T12:13:02.447Z,21.25
2019-03-26T12:15:30.981Z,15.50
2019-03-26T12:17:59.617Z,17.48
2019-03-26T12:20:28.256Z,16.40
2019-03-26T12:22:56.823Z,14.30
2019-03-26T12:25:25.466Z,19.12
2019-03-26T12:27:53.970Z,18.20
2019-03-26T12:30:36.468Z,22.48
2019-03-26T12:33:05.898Z,22.27
2019-03-26T12:35:34.839Z,20.02
2019-03-26T12:38:06.432Z,23.80
2019-03-26T12:40:34.935Z,24.60
2019-03-26T12:43:03.578Z,17.32
2019-03-26T12:45:32.510Z,16.87
2019-03-26T12:48:01.012Z,21.23
2019-03-26T12:50:32.010Z,19.55
2019-03-26T12:52:59.992Z,13.98
2019-03-26T12:55:28.686Z,15.83
2019-03-26T12:57:57.184Z,17.07
2019-03-26T13:00:33.446Z,13.72
2019-03-26T13:03:02.406Z,16.60
2019-03-26T13:05:30.914Z,18.05
2019-03-26T13:07:59.671Z,16.45
2019-03-26T13:10:28.317Z,22.20
2019-03-26T13:12:56.941Z,14.33
2019-03-26T13:15:25.773Z,13.60
2019-03-26T13:17:54.421Z,19.07
2019-03-26T13:20:23.059Z,31.27
2019-03-26T13:22:51.682Z,24.80
2019-03-26T13:25:20.270Z,22.00
2019-03-26T13:27:48.903Z,35.52
2019-03-26T13:30:18.496Z,18.92
2019-03-26T13:32:46.994Z,21.82
2019-03-26T13:35:16.038Z,23.00
2019-03-26T13:37:44.728Z,41.30
2019-03-26T13:40:26.633Z,20.55
2019-03-26T13:42:44.255Z,26.33
2019-03-26T13:45:13.332Z,21.37
2019-03-26T13:47:41.996Z,23.83
2019-03-26T13:50:11.125Z,21.30
2019-03-26T13:52:39.952Z,23.80
2019-03-26T13:55:11.902Z,20.30
2019-03-26T13:57:40.549Z,17.42
2019-03-26T14:00:10.609Z,31.02
2019-03-26T14:02:39.172Z,30.32
2019-03-26T14:05:24.886Z,26.30
2019-03-26T14:07:53.532Z,31.85
2019-03-26T14:10:24.909Z,23.18
2019-03-26T14:12:53.736Z,10.38
2019-03-26T14:15:22.369Z,21.15
2019-03-26T14:17:51.009Z,20.52
2019-03-26T14:20:20.215Z,18.82
2019-03-26T14:22:48.772Z,19.65
2019-03-26T14:25:17.516Z,14.00
2019-03-26T14:27:46.146Z,18.25
2019-03-26T14:30:15.358Z,13.60
2019-03-26T14:32:43.996Z,15.32
2019-03-26T14:35:13.068Z,16.77
2019-03-26T14:37:51.067Z,12.03
2019-03-26T14:40:12.207Z,14.73
2019-03-26T14:42:40.895Z,14.18
2019-03-26T14:45:09.746Z,13.45
2019-03-26T14:47:38.321Z,12.88
2019-03-26T14:50:08.311Z,13.30
2019-03-26T14:52:36.951Z,15.25
2019-03-26T14:55:07.201Z,21.00
2019-03-26T14:57:35.821Z,17.85
2019-03-26T15:00:06.321Z,19.50
2019-03-26T15:02:34.961Z,20.72
2019-03-26T15:05:04.156Z,14.68
2019-03-26T15:07:32.796Z,18.55
2019-03-26T15:10:01.418Z,22.85
2019-03-26T15:12:30.126Z,19.62
2019-03-26T15:14:58.669Z,16.27
2019-03-26T15:17:27.305Z,15.95
2019-03-26T15:19:55.990Z,18.87
2019-03-26T15:22:24.567Z,16.80
2019-03-26T15:24:53.243Z,17.15
2019-03-26T15:27:21.907Z,19.30
2019-03-26T15:29:50.542Z,17.57
2019-03-26T15:32:19.055Z,26.93
2019-03-26T15:34:47.674Z,27.48
2019-03-26T15:37:16.311Z,31.60
2019-03-26T15:39:45.024Z,17.95
2019-03-26T15:42:13.584Z,22.25
2019-03-26T15:44:42.214Z,20.65
2019-03-26T15:47:10.851Z,21.73
2019-03-26T15:49:39.483Z,25.25
2019-03-26T15:52:08.042Z,25.20
2019-03-26T15:54:36.694Z,19.92
2019-03-26T15:57:05.389Z,29.30
2019-03-26T15:59:33.887Z,27.48
2019-03-26T16:02:02.578Z,22.37
2019-03-26T16:04:31.253Z,23.83
2019-03-26T16:06:59.758Z,18.12
2019-03-26T16:09:28.255Z,28.92
2019-03-26T16:11:56.947Z,22.02
2019-03-26T16:14:28.148Z,16.45
2019-03-26T16:16:55.919Z,19.45
2019-03-26T16:19:32.079Z,17.42
2019-03-26T16:21:54.838Z,19.90
2019-03-26T16:24:23.417Z,19.42
2019-03-26T16:26:52.121Z,17.48
2019-03-26T16:29:20.754Z,18.98
2019-03-26T16:31:49.265Z,17.32
2019-03-26T16:34:17.810Z,8.73
2019-03-26T16:36:58.954Z,14.18
2019-03-26T16:39:16.838Z,5.45
2019-03-26T16:41:49.418Z,4.10
2019-03-26T16:44:15.648Z,6.40
2019-03-26T16:46:44.323Z,5.00
2019-03-26T16:49:12.974Z,10.03
2019-03-26T16:51:41.531Z,5.42
2019-03-26T16:54:10.361Z,10.60
2019-03-26T16:56:39.136Z,9.33
2019-03-26T16:59:07.716Z,7.25
2019-03-26T17:01:36.248Z,13.05
2019-03-26T17:04:04.893Z,10.95
2019-03-26T17:06:33.414Z,8.13
2019-03-26T17:09:02.045Z,10.65
2019-03-26T17:11:30.682Z,8.35
2019-03-26T17:13:59.351Z,6.25
2019-03-26T17:16:28.064Z,6.10
2019-03-26T17:18:56.582Z,4.30
2019-03-26T17:21:25.380Z,8.15
2019-03-26T17:23:54.116Z,9.00
2019-03-26T17:26:22.870Z,6.12
2019-03-26T17:28:51.541Z,6.75
2019-03-26T17:31:20.330Z,7.20
2019-03-26T17:33:49.121Z,5.80
2019-03-26T17:36:17.815Z,8.28
2019-03-26T17:38:46.604Z,5.80
2019-03-26T17:41:15.319Z,8.03
2019-03-26T17:43:43.924Z,11.40
2019-03-26T17:46:12.749Z,11.40
2019-03-26T17:48:41.401Z,12.70
2019-03-26T17:51:10.337Z,17.00
2019-03-26T17:53:38.905Z,16.48
2019-03-26T17:56:07.537Z,25.77
2019-03-26T17:58:36.576Z,30.43
2019-03-26T18:01:05.555Z,36.25
2019-03-26T18:03:34.110Z,34.03
2019-03-26T18:06:02.944Z,37.73
2019-03-26T18:08:31.698Z,33.92
2019-03-26T18:11:00.314Z,31.15
2019-03-26T18:13:28.882Z,18.85
2019-03-26T18:15:57.530Z,33.60
2019-03-26T18:18:26.265Z,23.45
2019-03-26T18:20:54.852Z,32.35
2019-03-26T18:23:23.517Z,31.48
2019-03-26T18:25:52.013Z,27.00
2019-03-26T18:28:20.908Z,30.52
2019-03-26T18:30:49.575Z,36.88
2019-03-26T18:33:18.247Z,29.87
2019-03-26T18:35:46.948Z,24.18
2019-03-26T18:38:15.470Z,28.73
2019-03-26T18:40:44.112Z,26.73
2019-03-26T18:43:12.781Z,24.10
2019-03-26T18:45:41.310Z,25.20
2019-03-26T18:48:09.950Z,26.30
2019-03-26T18:50:38.668Z,22.13
2019-03-26T18:53:07.337Z,23.83
2019-03-26T18:55:35.827Z,24.07
2019-03-26T18:58:04.640Z,14.23
2019-03-26T19:00:38.094Z,15.63
2019-03-26T19:03:07.237Z,28.45
2019-03-26T19:05:35.771Z,26.95
2019-03-26T19:08:05.009Z,24.40
2019-03-26T19:10:35.010Z,24.45
2019-03-26T19:13:03.805Z,26.62
2019-03-26T19:15:32.489Z,25.60
2019-03-26T19:18:01.128Z,21.77
2019-03-26T19:20:29.857Z,18.50
2019-03-26T19:22:58.653Z,21.55
2019-03-26T19:25:27.434Z,21.75
2019-03-26T19:27:56.308Z,14.30
2019-03-26T19:30:24.943Z,12.55
2019-03-26T19:32:53.695Z,12.45
2019-03-26T19:35:22.398Z,25.77
2019-03-26T19:37:50.963Z,20.45
2019-03-26T19:40:19.595Z,15.50
2019-03-26T19:42:48.253Z,24.07
2019-03-26T19:45:17.229Z,21.30
2019-03-26T19:47:46.018Z,21.12
2019-03-26T19:50:14.860Z,19.62
2019-03-26T19:52:43.359Z,16.45
2019-03-26T19:55:12.372Z,13.75
2019-03-26T19:57:41.069Z,18.73
2019-03-26T20:00:15.076Z,16.73
2019-03-26T20:02:43.763Z,11.68
2019-03-26T20:05:12.496Z,11.45
2019-03-26T20:07:41.255Z,8.33
2019-03-26T20:10:11.065Z,9.63
2019-03-26T20:12:39.615Z,12.88
2019-03-26T20:15:11.213Z,13.58
2019-03-26T20:17:39.883Z,13.72
2019-03-26T20:20:10.618Z,12.47
2019-03-26T20:22:39.386Z,13.43
2019-03-26T20:25:09.177Z,13.88
2019-03-26T20:27:37.724Z,6.05
2019-03-26T20:30:07.996Z,11.10
2019-03-26T20:32:36.888Z,10.32
2019-03-26T20:35:08.552Z,4.97
2019-03-26T20:37:37.337Z,10.50
2019-03-26T20:40:10.802Z,8.70
2019-03-26T20:42:39.448Z,13.88
2019-03-26T20:45:14.354Z,12.63
2019-03-26T20:47:42.417Z,6.17
2019-03-26T20:50:11.641Z,9.75
2019-03-26T20:52:40.406Z,8.73
2019-03-26T20:55:11.627Z,11.55
2019-03-26T20:57:40.255Z,10.53
2019-03-26T21:00:11.888Z,10.03
2019-03-26T21:02:40.482Z,6.20
2019-03-26T21:05:09.508Z,7.87
2019-03-26T21:07:38.634Z,4.40
2019-03-26T21:10:07.993Z,5.85
2019-03-26T21:12:36.713Z,8.00
2019-03-26T21:15:08.507Z,6.03
2019-03-26T21:17:37.553Z,9.78
2019-03-26T21:20:08.645Z,8.98
2019-03-26T21:22:37.140Z,8.60
2019-03-26T21:25:06.207Z,7.30
2019-03-26T21:27:34.833Z,15.80
2019-03-26T21:30:11.220Z,8.98
2019-03-26T21:32:35.124Z,6.62
2019-03-26T21:35:04.962Z,7.17
2019-03-26T21:37:33.594Z,8.88
2019-03-26T21:40:02.255Z,5.83
2019-03-26T21:42:30.968Z,5.10
2019-03-26T21:44:59.458Z,4.83
2019-03-26T21:47:28.056Z,9.50
2019-03-26T21:49:56.683Z,4.97
2019-03-26T21:52:25.383Z,11.22
2019-03-26T21:54:53.912Z,3.05
2019-03-26T21:57:22.408Z,5.40
2019-03-26T21:59:51.035Z,4.28
2019-03-26T22:02:19.696Z,9.08
2019-03-26T22:04:48.188Z,4.58
2019-03-26T22:07:16.753Z,6.67
2019-03-26T22:09:45.382Z,7.85
2019-03-26T22:12:13.950Z,6.35
2019-03-26T22:14:42.696Z,7.72
2019-03-26T22:17:11.256Z,9.30
2019-03-26T22:19:39.879Z,4.95
2019-03-26T22:22:08.404Z,6.30
2019-03-26T22:24:37.036Z,5.53
2019-03-26T22:27:05.662Z,6.25
2019-03-26T22:29:34.201Z,5.62
2019-03-26T22:32:02.692Z,6.10
2019-03-26T22:34:31.320Z,6.40
2019-03-26T22:36:59.986Z,5.50
2019-03-26T22:39:28.543Z,8.58
2019-03-26T22:41:57.030Z,7.05
2019-03-26T22:44:31.182Z,6.05
2019-03-26T22:46:56.064Z,3.85
2019-03-26T22:49:24.548Z,8.08
2019-03-26T22:51:53.075Z,5.83
2019-03-26T22:54:21.722Z,9.78
2019-03-26T22:56:50.456Z,3.22
2019-03-26T22:59:18.943Z,4.90
2019-03-26T23:01:47.581Z,5.05
2019-03-26T23:04:16.172Z,5.83
2019-03-26T23:06:44.655Z,5.78
2019-03-26T23:09:13.287Z,7.55
2019-03-26T23:11:41.916Z,8.55
2019-03-26T23:14:10.475Z,3.98
2019-03-26T23:16:39.134Z,4.75
2019-03-26T23:19:07.766Z,4.55
2019-03-26T23:21:36.395Z,3.72
2019-03-26T23:24:05.070Z,5.50
2019-03-26T23:26:33.713Z,4.70
2019-03-26T23:29:02.341Z,3.60
2019-03-26T23:31:31.005Z,5.28
2019-03-26T23:33:59.561Z,2.83
2019-03-26T23:36:28.052Z,6.22
2019-03-26T23:38:56.721Z,3.72
2019-03-26T23:41:25.211Z,4.53
2019-03-26T23:43:53.839Z,4.20
2019-03-26T23:46:22.717Z,5.53
2019-03-26T23:48:51.285Z,3.90
2019-03-26T23:51:19.843Z,7.33
2019-03-26T23:53:48.503Z,2.62
2019-03-26T23:56:17.128Z,3.37
2019-03-26T23:58:45.617Z,2.62
